Foz de Iguazu, Brazil
Current Conditions -  °F | °C
As of 6:00 PM on Friday 28 Nov 2014 (Local Time) from SARI Reporting Station
Scattered Clouds Scattered Clouds  
Wind Chill: 90°   Ceiling: Unl
Heat Index: 98°   Visibility: 6mi
Dew Point: 73°   Wind: 0mph
Humidity: 59%   Direction: NA
Pressure: 29.85"   Gusts: NA
Location:  25.69°S, 54.43°W
Report Text: SARI 282000Z 00000KT 9999 SCT030 FEW040TCU 32/23 Q1011
Loading
Personal Weather Stations






























Interactive Weather Map New forecast layout! Learn more

10-Day Weather Forecast

Advertisements
Track Severe Weather on mobile